Rough and Ready, Pennsylvania
Current Conditions -  °F | °C
As of 9:53 PM on Sunday 23 Nov 2014 (Local Time) from KSEG Reporting Station
Overcast Overcast  
Wind Chill: 50°   Ceiling: 3400
Heat Index: 50°   Visibility: 10mi
Dew Point: 37°   Wind: 6mph
Humidity: 61%   Direction: 170°S
Pressure: 29.93"   Gusts: NA
Location:  40.6691°N, 76.6267°W
Report Text: KSEG 240253Z AUTO 17005KT 10SM OVC034 10/03 A2993 RMK AO2 SLP137 T01000028 58026 $
Loading
Personal Weather Stations






























Interactive Weather Map New forecast layout! Learn more

10-Day Weather Forecast

Advertisements
Track Severe Weather on mobile